Time;durP1;ratioP1;P1;durP2;ratioP2;P2;SDS_P1;SDS_P2;PMS_P1;PMS_P2;Temp;Humidity;BMP_temperature;BMP_pressure;BME280_temperature;BME280_humidity;BME280_pressure;Samples;Min_cycle;Max_cycle;Signal;HPM_P1;HPM_P2
2023/08/13 00:02:19;;;;;;;10.40;3.25;;;;;;;21.36;nan;100765.19;4983179;28;20034;-78
2023/08/13 00:04:45;;;;;;;10.43;3.40;;;;;;;21.36;nan;100754.59;4989071;28;20883;-78
2023/08/13 00:07:11;;;;;;;8.13;3.22;;;;;;;21.37;nan;100761.56;4982287;28;20033;-78
2023/08/13 00:09:36;;;;;;;6.30;3.10;;;;;;;21.35;nan;100760.84;4983360;28;20069;-78
2023/08/13 00:12:02;;;;;;;5.70;3.10;;;;;;;21.36;nan;100751.13;4984680;28;20030;-75
2023/08/13 00:14:27;;;;;;;6.60;3.17;;;;;;;21.36;nan;100767.81;4984806;28;20058;-78
2023/08/13 00:16:53;;;;;;;11.80;3.33;;;;;;;21.36;nan;100769.63;4987021;28;20033;-77
2023/08/13 00:19:18;;;;;;;10.55;3.33;;;;;;;21.36;nan;100765.19;4981221;28;20117;-77
2023/08/13 00:21:44;;;;;;;6.78;2.80;;;;;;;21.34;nan;100751.25;4985891;28;20813;-77
2023/08/13 00:24:09;;;;;;;10.13;3.40;;;;;;;21.36;nan;100749.31;4992088;28;20034;-77
2023/08/13 00:26:36;;;;;;;6.57;3.10;;;;;;;21.37;nan;100761.56;4989621;28;20034;-78
2023/08/13 00:29:03;;;;;;;7.93;3.60;;;;;;;21.37;nan;100755.44;4984348;28;20037;-77
2023/08/13 00:31:28;;;;;;;6.85;3.42;;;;;;;21.37;nan;100752.81;4984802;28;20418;-76
2023/08/13 00:33:53;;;;;;;4.20;2.65;;;;;;;21.38;nan;100757.97;4992444;28;20025;-76
2023/08/13 00:36:19;;;;;;;6.47;3.28;;;;;;;21.39;nan;100758.84;4987650;28;20044;-76
2023/08/13 00:38:44;;;;;;;5.82;3.25;;;;;;;21.39;nan;100762.31;4965680;28;20497;-77
2023/08/13 00:41:09;;;;;;;9.93;3.08;;;;;;;21.39;nan;100754.41;4981308;28;20520;-77
2023/08/13 00:43:39;;;;;;;7.10;3.13;;;;;;;21.39;nan;100754.41;4988256;28;20092;-76
2023/08/13 00:46:04;;;;;;;7.32;2.85;;;;;;;21.40;nan;100755.25;4989800;28;20033;-76
2023/08/13 00:48:30;;;;;;;7.90;2.55;;;;;;;21.40;nan;100749.97;4964615;28;20367;-77
2023/08/13 00:50:56;;;;;;;6.35;3.10;;;;;;;21.40;nan;100742.88;4982059;28;20136;-77
2023/08/13 00:53:22;;;;;;;6.57;2.80;;;;;;;21.40;nan;100745.50;4989053;28;20033;-76
2023/08/13 00:55:47;;;;;;;7.90;2.90;;;;;;;21.41;nan;100741.06;4987872;28;20045;-78
2023/08/13 00:58:13;;;;;;;7.57;2.63;;;;;;;21.41;nan;100746.34;4981142;28;20045;-76
2023/08/13 01:00:38;;;;;;;4.45;2.60;;;;;;;21.42;nan;100746.25;4980886;28;20034;-78
2023/08/13 01:03:04;;;;;;;6.70;2.45;;;;;;;21.42;nan;100740.94;4984115;28;20705;-78
2023/08/13 01:06:04;;;;;;;5.13;2.88;;;;;;;21.41;nan;100744.56;4983807;28;20064;-77
2023/08/13 01:08:51;;;;;;;7.55;2.60;;;;;;;21.45;nan;100752.28;4979960;28;20042;-76
2023/08/13 01:11:29;;;;;;;5.78;2.70;;;;;;;21.47;nan;100750.34;4981852;28;20034;-76
2023/08/13 01:14:27;;;;;;;6.78;3.42;;;;;;;21.47;nan;100755.63;4975710;28;20040;-77
2023/08/13 01:16:55;;;;;;;7.53;3.08;;;;;;;21.48;nan;100752.03;4983352;28;20110;-76
2023/08/13 01:19:21;;;;;;;5.80;2.90;;;;;;;21.47;nan;100745.06;4980585;28;20128;-78
2023/08/13 01:21:47;;;;;;;5.95;2.65;;;;;;;21.48;nan;100754.66;4967845;28;20164;-77
2023/08/13 01:24:12;;;;;;;5.55;2.90;;;;;;;21.47;nan;100747.72;4979454;28;20034;-77
2023/08/13 01:26:48;;;;;;;4.95;2.60;;;;;;;21.47;nan;100742.44;4964536;28;20038;-77
2023/08/13 01:29:35;;;;;;;5.75;2.80;;;;;;;21.48;nan;100752.88;4979775;28;20057;-77
2023/08/13 01:32:02;;;;;;;4.18;2.80;;;;;;;21.49;nan;100737.84;4979111;28;20026;-77
2023/08/13 01:34:28;;;;;;;7.03;2.67;;;;;;;21.48;nan;100752.03;4977068;28;20037;-76
2023/08/13 01:36:54;;;;;;;8.88;3.13;;;;;;;21.49;nan;100741.34;4979891;28;20034;-77
2023/08/13 01:39:20;;;;;;;8.75;3.40;;;;;;;21.49;nan;100746.63;4981314;28;20054;-77
2023/08/13 01:41:55;;;;;;;4.22;2.47;;;;;;;21.50;nan;100745.69;4981646;28;20042;-77
2023/08/13 01:44:21;;;;;;;3.17;2.47;;;;;;;21.51;nan;100744.72;4975555;28;20553;-76
2023/08/13 01:46:47;;;;;;;4.28;2.75;;;;;;;21.51;nan;100742.09;4981044;28;20061;-77
2023/08/13 01:49:13;;;;;;;6.80;2.50;;;;;;;21.53;nan;100745.44;4983319;28;20084;-77
2023/08/13 01:51:38;;;;;;;7.13;3.33;;;;;;;21.54;nan;100741.00;4984119;28;20504;-76
2023/08/13 01:54:04;;;;;;;4.97;2.72;;;;;;;21.54;nan;100743.66;4997013;28;20037;-76
2023/08/13 01:56:29;;;;;;;5.63;2.33;;;;;;;21.54;nan;100741.84;4990644;28;20033;-76
2023/08/13 01:58:54;;;;;;;4.32;2.33;;;;;;;21.54;nan;100744.50;4986831;28;20111;-76
2023/08/13 02:01:20;;;;;;;9.18;3.58;;;;;;;21.55;nan;100740.03;4985809;28;20141;-77
2023/08/13 02:03:45;;;;;;;6.88;2.53;;;;;;;21.54;nan;100735.72;4978332;28;20033;-77
2023/08/13 02:06:10;;;;;;;3.30;2.63;;;;;;;21.56;nan;100736.47;4985939;28;20030;-77
2023/08/13 02:08:36;;;;;;;4.65;2.45;;;;;;;21.55;nan;100740.03;4984888;28;20127;-77
2023/08/13 02:11:01;;;;;;;4.90;2.33;;;;;;;21.55;nan;100740.03;4986083;28;20069;-77
2023/08/13 02:13:26;;;;;;;4.50;2.65;;;;;;;21.55;nan;100737.41;4983912;28;20030;-76
2023/08/13 02:15:52;;;;;;;4.97;2.40;;;;;;;21.57;nan;100735.50;4983348;28;20144;-76
2023/08/13 02:18:17;;;;;;;6.40;2.30;;;;;;;21.56;nan;100739.94;4984368;28;20026;-77
2023/08/13 02:20:42;;;;;;;5.38;2.55;;;;;;;21.58;nan;100748.59;4986671;28;20095;-80
2023/08/13 02:23:08;;;;;;;4.88;2.20;;;;;;;21.55;nan;100748.81;4985188;28;20172;-76
2023/08/13 02:25:33;;;;;;;5.97;2.53;;;;;;;21.55;nan;100753.25;4995773;28;20026;-77
2023/08/13 02:27:58;;;;;;;5.50;2.63;;;;;;;21.55;nan;100747.97;4985787;28;20125;-77
2023/08/13 02:30:24;;;;;;;5.30;2.45;;;;;;;21.56;nan;100762.88;4985253;28;20026;-77
2023/08/13 02:32:49;;;;;;;4.72;2.30;;;;;;;21.55;nan;100759.38;4989069;28;20052;-76
2023/08/13 02:35:14;;;;;;;6.13;2.60;;;;;;;21.56;nan;100754.97;4994190;28;20109;-77
2023/08/13 02:37:40;;;;;;;6.97;2.53;;;;;;;21.56;nan;100760.25;4985405;28;20034;-76
2023/08/13 02:40:06;;;;;;;5.75;2.50;;;;;;;21.58;nan;100751.25;4985587;28;20036;-75
2023/08/13 02:42:32;;;;;;;5.50;2.47;;;;;;;21.57;nan;100749.56;4988501;28;20045;-75
2023/08/13 02:44:57;;;;;;;2.97;2.17;;;;;;;21.57;nan;100751.38;4983354;28;20034;-76
2023/08/13 02:47:24;;;;;;;5.72;2.40;;;;;;;21.58;nan;100753.03;4985144;28;20033;-76
2023/08/13 02:49:49;;;;;;;3.78;2.58;;;;;;;21.56;nan;100747.88;4985819;28;20041;-76
2023/08/13 02:52:15;;;;;;;5.30;2.30;;;;;;;21.57;nan;100743.44;4990470;28;20025;-76
2023/08/13 02:54:40;;;;;;;3.55;2.00;;;;;;;21.56;nan;100747.03;4993050;28;20085;-77
2023/08/13 02:57:05;;;;;;;3.72;2.60;;;;;;;21.54;nan;100748.94;4985975;28;20026;-77
2023/08/13 02:59:31;;;;;;;5.13;2.17;;;;;;;21.52;nan;100740.28;4982787;28;20705;-76
2023/08/13 03:01:56;;;;;;;5.80;2.25;;;;;;;21.50;nan;100744.81;4989806;28;20433;-77
2023/08/13 03:04:22;;;;;;;3.72;2.30;;;;;;;21.50;nan;100743.06;4990805;28;20027;-77
2023/08/13 03:06:47;;;;;;;3.25;2.72;;;;;;;21.50;nan;100750.09;4985945;28;20036;-76
2023/08/13 03:09:19;;;;;;;3.47;2.00;;;;;;;21.48;nan;100747.59;4984610;28;20034;-77
2023/08/13 03:11:45;;;;;;;4.55;2.55;;;;;;;21.50;nan;100755.38;4983429;28;20053;-76
2023/08/13 03:14:10;;;;;;;4.35;2.35;;;;;;;21.48;nan;100752.88;4985012;28;20030;-77
2023/08/13 03:16:35;;;;;;;2.78;2.20;;;;;;;21.48;nan;100752.03;4989072;28;20033;-77
2023/08/13 03:19:01;;;;;;;4.22;2.05;;;;;;;21.49;nan;100753.72;4985657;28;20030;-77
2023/08/13 03:21:26;;;;;;;4.55;2.28;;;;;;;21.48;nan;100741.47;4983416;28;20062;-77
2023/08/13 03:23:51;;;;;;;3.72;2.15;;;;;;;21.50;nan;100750.09;4980986;28;20030;-76
2023/08/13 03:26:17;;;;;;;4.57;2.42;;;;;;;21.50;nan;100750.09;4985482;28;20033;-75
2023/08/13 03:28:42;;;;;;;4.07;2.25;;;;;;;21.51;nan;100742.09;4982050;28;20038;-76
2023/08/13 03:31:07;;;;;;;4.45;2.22;;;;;;;21.51;nan;100744.72;4982619;28;20080;-76
2023/08/13 03:33:33;;;;;;;4.93;2.55;;;;;;;21.52;nan;100737.66;4994502;28;20025;-75
2023/08/13 03:35:58;;;;;;;3.65;2.50;;;;;;;21.52;nan;100732.34;4984572;28;20034;-76
2023/08/13 03:38:23;;;;;;;2.53;2.08;;;;;;;21.52;nan;100733.19;4965528;28;20070;-77
2023/08/13 03:40:53;;;;;;;2.85;2.47;;;;;;;21.54;nan;100736.56;4981817;28;20108;-77
2023/08/13 03:43:18;;;;;;;2.25;2.05;;;;;;;21.54;nan;100731.28;4979209;28;20446;-77
2023/08/13 03:45:44;;;;;;;4.55;2.72;;;;;;;21.53;nan;100729.59;4978466;28;20041;-77
2023/08/13 03:48:09;;;;;;;3.88;2.20;;;;;;;21.53;nan;100734.88;4983460;28;20033;-77
2023/08/13 03:50:34;;;;;;;4.40;2.50;;;;;;;21.56;nan;100728.53;4966249;28;20050;-77
2023/08/13 03:52:59;;;;;;;2.92;2.08;;;;;;;21.55;nan;100727.66;4989090;28;20136;-76
2023/08/13 03:55:25;;;;;;;2.97;2.30;;;;;;;21.58;nan;100738.03;4990178;28;20126;-76
2023/08/13 03:57:53;;;;;;;4.32;2.30;;;;;;;21.57;nan;100733.72;4983622;28;20034;-76
2023/08/13 04:00:19;;;;;;;4.35;2.05;;;;;;;21.57;nan;100735.50;4984293;28;20072;-76
2023/08/13 04:02:48;;;;;;;4.03;2.03;;;;;;;21.58;nan;100738.03;4986123;28;20140;-76
2023/08/13 04:05:14;;;;;;;4.18;2.38;;;;;;;21.58;nan;100737.19;4967099;28;20518;-77
2023/08/13 04:07:39;;;;;;;4.93;2.80;;;;;;;21.58;nan;100737.19;4982614;28;20162;-77
2023/08/13 04:10:05;;;;;;;4.28;2.08;;;;;;;21.58;nan;100739.81;4982023;28;20026;-77
2023/08/13 04:12:30;;;;;;;3.50;2.33;;;;;;;21.58;nan;100742.47;4977952;28;20030;-77
2023/08/13 04:14:55;;;;;;;5.78;2.10;;;;;;;21.57;nan;100741.63;4988222;28;20053;-76
2023/08/13 04:17:21;;;;;;;4.45;1.67;;;;;;;21.59;nan;100742.34;4980853;28;20030;-77
2023/08/13 04:19:46;;;;;;;2.17;1.98;;;;;;;21.60;nan;100743.19;4981167;28;21452;-77
2023/08/13 04:22:12;;;;;;;3.63;2.40;;;;;;;21.60;nan;100745.84;4981116;28;20050;-77
2023/08/13 04:24:37;;;;;;;3.42;2.10;;;;;;;21.59;nan;100741.50;4987421;28;20057;-77
2023/08/13 04:27:03;;;;;;;3.22;2.17;;;;;;;21.60;nan;100743.19;4981422;28;20140;-77
2023/08/13 04:29:28;;;;;;;4.22;2.17;;;;;;;21.59;nan;100742.34;4980721;28;20037;-77
2023/08/13 04:31:53;;;;;;;2.58;1.85;;;;;;;21.59;nan;100742.34;4984103;28;20065;-77
2023/08/13 04:34:19;;;;;;;5.60;2.47;;;;;;;21.59;nan;100744.16;4975054;28;20121;-77
2023/08/13 04:36:44;;;;;;;3.30;2.72;;;;;;;21.60;nan;100745.84;4979321;28;20061;-77
2023/08/13 04:39:09;;;;;;;4.60;1.90;;;;;;;21.59;nan;100745.00;4980966;28;20667;-77
2023/08/13 04:41:35;;;;;;;4.55;2.30;;;;;;;21.59;nan;100741.50;4981083;28;20038;-76
2023/08/13 04:44:00;;;;;;;5.68;2.55;;;;;;;21.61;nan;100750.16;4987507;28;20029;-76
2023/08/13 04:46:26;;;;;;;2.45;2.13;;;;;;;21.61;nan;100748.38;4983367;28;20064;-76
2023/08/13 04:48:51;;;;;;;2.95;2.28;;;;;;;21.60;nan;100749.31;4979994;28;20534;-76
2023/08/13 04:51:18;;;;;;;5.07;2.10;;;;;;;21.60;nan;100749.31;4980704;28;20030;-75
2023/08/13 04:53:44;;;;;;;3.90;1.98;;;;;;;21.61;nan;100748.38;4987633;28;20029;-76
2023/08/13 04:56:10;;;;;;;4.43;2.35;;;;;;;21.61;nan;100743.09;4977426;28;20034;-76
2023/08/13 04:58:35;;;;;;;2.10;1.90;;;;;;;21.61;nan;100743.09;4979789;28;20048;-76
2023/08/13 05:01:02;;;;;;;3.28;2.28;;;;;;;21.62;nan;100746.59;4980848;28;20034;-76
2023/08/13 05:03:27;;;;;;;3.92;2.30;;;;;;;21.61;nan;100752.78;4983644;28;20037;-75
2023/08/13 05:05:53;;;;;;;3.40;2.10;;;;;;;21.60;nan;100746.66;4983685;28;20466;-76
2023/08/13 05:08:18;;;;;;;2.67;1.95;;;;;;;21.59;nan;100747.63;4980941;28;20121;-77
2023/08/13 05:10:45;;;;;;;3.33;1.70;;;;;;;21.59;nan;100754.72;4980212;28;20029;-76
2023/08/13 05:13:10;;;;;;;4.78;1.92;;;;;;;21.60;nan;100751.13;4984383;28;20077;-75
2023/08/13 05:15:35;;;;;;;3.80;1.98;;;;;;;21.60;nan;100748.47;4964256;28;20434;-76
2023/08/13 05:18:01;;;;;;;3.63;1.80;;;;;;;21.58;nan;100748.59;4981588;28;20046;-77
2023/08/13 05:20:26;;;;;;;4.07;2.13;;;;;;;21.59;nan;100749.44;4980831;28;20030;-76
2023/08/13 05:22:52;;;;;;;3.88;1.90;;;;;;;21.59;nan;100752.06;4978070;28;20074;-76
2023/08/13 05:25:17;;;;;;;3.40;2.03;;;;;;;21.60;nan;100745.84;4987461;28;20517;-77
2023/08/13 05:27:42;;;;;;;4.28;2.30;;;;;;;21.59;nan;100752.91;4984159;28;20038;-76
2023/08/13 05:30:08;;;;;;;2.80;1.65;;;;;;;21.59;nan;100749.44;4985372;28;20133;-77
2023/08/13 05:32:34;;;;;;;4.38;1.80;;;;;;;21.58;nan;100753.03;4985412;28;20422;-77
2023/08/13 05:34:59;;;;;;;3.88;2.03;;;;;;;21.59;nan;100754.72;4988575;28;20038;-77
2023/08/13 05:37:24;;;;;;;2.55;2.00;;;;;;;21.59;nan;100754.72;4983729;28;20092;-77
2023/08/13 05:39:50;;;;;;;2.10;1.73;;;;;;;21.60;nan;100761.69;4966069;28;20027;-77
2023/08/13 05:45:37;;;;;;;2.75;1.98;;;;;;;21.60;nan;100767.81;4994731;28;20179;-77
2023/08/13 05:48:03;;;;;;;3.47;1.60;;;;;;;21.61;nan;100764.22;4985539;28;20121;-77
2023/08/13 05:50:29;;;;;;;5.97;2.08;;;;;;;21.61;nan;100766.00;4983909;28;20033;-74
2023/08/13 05:52:54;;;;;;;3.67;2.25;;;;;;;21.60;nan;100766.97;4987926;28;20773;-76
2023/08/13 05:55:20;;;;;;;4.60;2.65;;;;;;;21.59;nan;100767.94;4989674;28;20450;-75
2023/08/13 05:57:45;;;;;;;3.53;2.20;;;;;;;21.58;nan;100766.25;4985054;28;20819;-77
2023/08/13 06:00:12;;;;;;;4.82;1.90;;;;;;;21.58;nan;100763.59;4984128;28;20034;-77
2023/08/13 06:02:38;;;;;;;5.97;2.08;;;;;;;21.57;nan;100761.94;4985751;28;20054;-77
2023/08/13 06:05:06;;;;;;;5.72;2.17;;;;;;;21.59;nan;100760.84;4985367;28;20449;-77
2023/08/13 06:07:31;;;;;;;3.15;1.88;;;;;;;21.57;nan;100760.13;4983281;28;20327;-78
2023/08/13 06:09:56;;;;;;;6.38;1.70;;;;;;;21.57;nan;100760.13;4984675;28;20057;-78
2023/08/13 06:12:22;;;;;;;1.92;1.63;;;;;;;21.56;nan;100760.25;4979553;28;20084;-78
2023/08/13 06:14:47;;;;;;;3.67;2.00;;;;;;;21.55;nan;100763.81;4994180;28;20141;-78
2023/08/13 06:17:12;;;;;;;7.55;2.05;;;;;;;21.54;nan;100762.97;4984537;28;20071;-78
2023/08/13 06:19:38;;;;;;;5.22;1.90;;;;;;;21.54;nan;100768.25;4984095;28;20149;-76
2023/08/13 06:22:03;;;;;;;5.47;2.22;;;;;;;21.56;nan;100762.88;4980723;28;20090;-77
2023/08/13 06:24:29;;;;;;;4.85;2.13;;;;;;;21.57;nan;100767.22;4991679;28;20038;-76
2023/08/13 06:26:54;;;;;;;3.08;2.20;;;;;;;21.56;nan;100770.81;4984711;28;20132;-77
2023/08/13 06:29:19;;;;;;;4.45;1.88;;;;;;;21.57;nan;100772.50;4982917;28;20053;-77
2023/08/13 06:31:45;;;;;;;2.72;2.13;;;;;;;21.58;nan;100775.00;4985924;28;20431;-77
2023/08/13 06:34:10;;;;;;;4.32;2.03;;;;;;;21.57;nan;100775.97;4986142;28;21078;-76
2023/08/13 06:36:39;;;;;;;5.35;1.90;;;;;;;21.59;nan;100781.97;4985574;28;20034;-78
2023/08/13 06:39:04;;;;;;;10.15;2.20;;;;;;;21.59;nan;100775.84;4983811;28;20029;-77
2023/08/13 06:41:31;;;;;;;3.60;2.05;;;;;;;21.58;nan;100775.00;4983702;28;20041;-78
2023/08/13 06:43:56;;;;;;;4.45;1.90;;;;;;;21.57;nan;100769.84;4978215;28;20449;-80
2023/08/13 06:46:21;;;;;;;2.72;1.98;;;;;;;21.57;nan;100764.56;4981013;28;20022;-78
2023/08/13 06:48:48;;;;;;;6.30;1.98;;;;;;;21.60;nan;100766.97;4982604;28;20121;-77
2023/08/13 06:51:13;;;;;;;3.80;2.15;;;;;;;21.62;nan;100765.06;4981021;28;20030;-77
2023/08/13 06:53:39;;;;;;;5.90;1.85;;;;;;;21.64;nan;100766.63;4994313;28;20133;-73
2023/08/13 06:56:05;;;;;;;3.13;1.98;;;;;;;21.64;nan;100764.00;4990053;28;20739;-77
2023/08/13 06:58:31;;;;;;;3.00;1.80;;;;;;;21.65;nan;100768.31;4982533;28;20034;-77
2023/08/13 07:00:56;;;;;;;5.80;1.92;;;;;;;21.67;nan;100762.94;4983479;28;20473;-77
2023/08/13 07:03:21;;;;;;;8.00;2.13;;;;;;;21.73;nan;100770.41;4981874;28;20177;-78
2023/08/13 07:05:47;;;;;;;11.77;2.47;;;;;;;21.85;nan;100774.78;4979719;28;20118;-78
2023/08/13 07:08:12;;;;;;;7.35;2.55;;;;;;;;;;4984585;28;20463;-79
2023/08/13 07:10:41;;;;;;;6.57;1.80;;;;;;;21.80;nan;100773.44;4985019;28;20910;-78
2023/08/13 07:13:06;;;;;;;6.05;2.03;;;;;;;21.76;nan;100767.53;4985525;28;20113;-76
2023/08/13 07:15:32;;;;;;;13.25;2.58;;;;;;;21.73;nan;100764.28;4986237;28;20036;-77
2023/08/13 07:17:57;;;;;;;11.38;2.22;;;;;;;21.68;nan;100769.91;4982607;28;20034;-76
2023/08/13 07:20:23;;;;;;;3.30;2.40;;;;;;;21.65;nan;100770.13;4983216;28;20081;-75
2023/08/13 07:22:48;;;;;;;8.13;2.38;;;;;;;21.64;nan;100765.78;4984870;28;20077;-77
2023/08/13 07:25:13;;;;;;;14.05;3.20;;;;;;;21.61;nan;100760.72;4981602;28;20049;-76
2023/08/13 07:27:40;;;;;;;6.45;2.20;;;;;;;21.59;nan;100763.47;4982111;28;20047;-75
2023/08/13 07:30:07;;;;;;;3.85;2.20;;;;;;;21.59;nan;100766.13;4983114;28;20027;-76
2023/08/13 07:32:34;;;;;;;11.82;3.03;;;;;;;21.66;nan;100767.34;4988785;28;20041;-77
2023/08/13 07:35:00;;;;;;;36.78;7.63;;;;;;;21.69;nan;100764.50;4992613;28;20773;-75
2023/08/13 07:37:26;;;;;;;34.97;7.20;;;;;;;21.67;nan;100773.50;4982247;28;20040;-77
2023/08/13 07:39:51;;;;;;;21.90;6.32;;;;;;;21.62;nan;100773.00;4983660;28;20030;-77
2023/08/13 07:42:16;;;;;;;26.13;6.38;;;;;;;21.60;nan;100772.25;4982003;28;20025;-77
2023/08/13 07:44:42;;;;;;;20.20;6.05;;;;;;;21.57;nan;100775.97;4978623;28;20139;-77
2023/08/13 07:47:07;;;;;;;23.88;5.90;;;;;;;21.56;nan;100781.38;4982938;28;20073;-77
2023/08/13 07:49:33;;;;;;;20.88;6.30;;;;;;;21.54;nan;100778.84;4982331;28;20420;-78
2023/08/13 07:51:58;;;;;;;17.88;5.53;;;;;;;21.53;nan;100782.44;4985216;28;20057;-77
2023/08/13 07:54:25;;;;;;;19.85;5.82;;;;;;;21.53;nan;100781.59;4975379;28;20162;-76
2023/08/13 07:56:50;;;;;;;18.60;5.60;;;;;;;21.53;nan;100786.88;4982347;28;20494;-78
2023/08/13 07:59:24;;;;;;;17.90;5.63;;;;;;;21.51;nan;100779.06;4981612;28;21171;-78
2023/08/13 08:01:50;;;;;;;18.40;5.85;;;;;;;21.50;nan;100781.81;4982815;28;20034;-78
2023/08/13 08:04:15;;;;;;;18.48;5.55;;;;;;;21.50;nan;100784.44;4976295;28;20068;-78
2023/08/13 08:06:40;;;;;;;23.25;5.68;;;;;;;21.50;nan;100779.16;4981231;28;20355;-77
2023/08/13 08:09:06;;;;;;;16.00;5.10;;;;;;;21.48;nan;100784.56;4981236;28;20066;-78
2023/08/13 08:11:31;;;;;;;16.63;5.88;;;;;;;21.48;nan;100778.44;4983003;28;20398;-77
2023/08/13 08:13:57;;;;;;;16.65;5.32;;;;;;;21.47;nan;100780.25;4978052;28;20129;-77
2023/08/13 08:16:22;;;;;;;16.02;4.88;;;;;;;21.47;nan;100777.59;4978091;28;20030;-78
2023/08/13 08:18:48;;;;;;;14.35;4.85;;;;;;;21.47;nan;100772.31;4981157;28;20030;-78
2023/08/13 08:21:13;;;;;;;12.77;4.82;;;;;;;21.47;nan;100780.25;4981196;28;20045;-78
2023/08/13 08:23:38;;;;;;;14.38;5.38;;;;;;;21.46;nan;100770.63;4980913;28;20061;-77
2023/08/13 08:26:04;;;;;;;12.40;4.78;;;;;;;21.46;nan;100772.44;4986965;28;20053;-77
2023/08/13 08:28:29;;;;;;;16.17;4.70;;;;;;;21.46;nan;100764.50;4981474;28;20065;-77
2023/08/13 08:30:55;;;;;;;15.40;4.80;;;;;;;21.46;nan;100764.50;4981148;28;20152;-77
2023/08/13 08:33:22;;;;;;;16.00;4.65;;;;;;;21.46;nan;100764.50;4980556;28;20037;-77
2023/08/13 08:35:47;;;;;;;15.82;5.15;;;;;;;21.45;nan;100766.31;4980573;28;20034;-77
2023/08/13 08:38:13;;;;;;;12.48;4.70;;;;;;;21.45;nan;100762.84;4980254;28;20038;-78
2023/08/13 08:40:42;;;;;;;17.95;5.50;;;;;;;21.45;nan;100762.84;4981709;28;20085;-77
2023/08/13 08:43:08;;;;;;;15.17;5.30;;;;;;;21.44;nan;100759.31;4982263;28;20124;-78
2023/08/13 08:45:34;;;;;;;17.00;4.63;;;;;;;21.43;nan;100755.84;4990564;28;21127;-77
2023/08/13 08:47:59;;;;;;;11.65;4.50;;;;;;;21.45;nan;100762.84;4980735;28;20026;-77
2023/08/13 08:50:25;;;;;;;10.13;4.15;;;;;;;21.43;nan;100763.75;4979686;28;20038;-78
2023/08/13 08:52:50;;;;;;;11.57;4.35;;;;;;;21.43;nan;100761.13;4983669;28;20043;-78
2023/08/13 08:55:16;;;;;;;11.30;4.85;;;;;;;21.43;nan;100763.75;4977675;28;20140;-77
2023/08/13 08:57:41;;;;;;;14.63;5.30;;;;;;;21.43;nan;100761.13;4977798;28;20034;-77
2023/08/13 09:00:08;;;;;;;11.75;4.82;;;;;;;21.44;nan;100761.97;4979326;28;20125;-77
2023/08/13 09:02:34;;;;;;;12.52;4.88;;;;;;;21.43;nan;100763.75;4986750;28;20034;-77
2023/08/13 09:04:59;;;;;;;16.85;4.50;;;;;;;21.43;nan;100763.75;4980279;28;20034;-78
2023/08/13 09:07:31;;;;;;;11.88;4.55;;;;;;;21.43;nan;100757.66;4981347;28;20041;-78
2023/08/13 09:09:57;;;;;;;12.75;4.80;;;;;;;21.42;nan;100754.16;4979830;28;20115;-78
2023/08/13 09:12:22;;;;;;;12.00;4.97;;;;;;;21.43;nan;100750.56;4978888;28;20042;-76
2023/08/13 09:14:47;;;;;;;13.93;4.60;;;;;;;21.43;nan;100755.00;4978522;28;20034;-78
2023/08/13 09:17:13;;;;;;;10.75;4.40;;;;;;;21.42;nan;100748.03;4981763;28;20030;-77
2023/08/13 09:19:38;;;;;;;14.23;4.75;;;;;;;21.42;nan;100743.59;4980513;28;20035;-78
2023/08/13 09:22:03;;;;;;;8.63;4.13;;;;;;;21.42;nan;100746.25;4980335;28;20050;-78
2023/08/13 09:24:41;;;;;;;13.15;4.63;;;;;;;21.41;nan;100752.47;4975121;28;20030;-77
2023/08/13 09:27:16;;;;;;;14.30;4.57;;;;;;;21.42;nan;100740.13;4981271;28;20141;-78
2023/08/13 09:29:42;;;;;;;10.95;5.05;;;;;;;21.42;nan;100743.59;4979131;28;20068;-78
2023/08/13 09:32:07;;;;;;;13.45;4.72;;;;;;;21.42;nan;100742.75;4979235;28;20479;-77
2023/08/13 09:34:35;;;;;;;14.15;4.25;;;;;;;21.42;nan;100738.31;4978326;28;20537;-78
2023/08/13 09:37:01;;;;;;;15.38;4.50;;;;;;;21.41;nan;100736.63;4981898;28;20879;-78
2023/08/13 09:39:28;;;;;;;13.23;5.00;;;;;;;21.42;nan;100743.59;4978646;28;20029;-78
2023/08/13 09:41:53;;;;;;;14.27;4.70;;;;;;;21.42;nan;100737.47;4965843;28;20067;-77
2023/08/13 09:44:20;;;;;;;10.43;4.15;;;;;;;21.42;nan;100738.31;4992061;28;20033;-77
2023/08/13 09:46:49;;;;;;;11.18;4.25;;;;;;;21.41;nan;100734.00;4977476;28;20037;-76
2023/08/13 09:49:15;;;;;;;11.20;4.35;;;;;;;21.42;nan;100730.38;4978457;28;20034;-78
2023/08/13 09:51:42;;;;;;;9.32;4.30;;;;;;;21.41;nan;100731.34;4978018;28;20085;-77
2023/08/13 09:54:15;;;;;;;9.85;4.22;;;;;;;21.41;nan;100728.72;4973749;28;20798;-78
2023/08/13 09:56:42;;;;;;;11.98;4.32;;;;;;;21.42;nan;100726.91;4981716;28;20034;-77
2023/08/13 09:59:08;;;;;;;11.45;4.55;;;;;;;21.42;nan;100727.75;4978493;28;20033;-77
2023/08/13 10:01:34;;;;;;;11.05;4.00;;;;;;;21.42;nan;100726.91;4962661;28;20141;-77
2023/08/13 10:04:00;;;;;;;12.18;4.40;;;;;;;21.42;nan;100733.03;4974074;28;20105;-78
2023/08/13 10:06:26;;;;;;;10.70;4.30;;;;;;;21.42;nan;100730.38;4976450;28;20041;-78
2023/08/13 10:08:51;;;;;;;14.00;5.13;;;;;;;21.42;nan;100733.03;4980955;28;20073;-77
2023/08/13 10:11:17;;;;;;;11.65;4.30;;;;;;;21.41;nan;100731.34;4982384;28;20032;-77
2023/08/13 10:13:42;;;;;;;9.45;4.03;;;;;;;21.42;nan;100722.47;4979352;28;20184;-77
2023/08/13 10:16:08;;;;;;;9.10;4.35;;;;;;;21.41;nan;100723.44;4990120;28;20486;-77
2023/08/13 10:18:34;;;;;;;7.53;4.57;;;;;;;21.42;nan;100725.09;4983944;28;20026;-77
2023/08/13 10:20:59;;;;;;;8.52;4.20;;;;;;;21.42;nan;100729.53;4982931;28;20064;-77
2023/08/13 10:23:26;;;;;;;8.18;4.10;;;;;;;21.42;nan;100727.75;4976944;28;20042;-77
2023/08/13 10:25:56;;;;;;;8.65;4.65;;;;;;;21.41;nan;100726.06;4980893;28;21897;-78
2023/08/13 10:28:28;;;;;;;;;;;;;;;21.41;nan;100726.06;4983647;28;20579;-78
2023/08/13 10:31:19;;;;;;;11.25;4.13;;;;;;;21.42;nan;100730.38;4982797;28;20348;-78
2023/08/13 10:33:44;;;;;;;12.77;4.05;;;;;;;21.41;nan;100725.22;4978826;28;20720;-77
2023/08/13 10:36:09;;;;;;;9.10;4.10;;;;;;;21.41;nan;100728.72;4981293;28;20034;-77
2023/08/13 10:38:38;;;;;;;9.93;4.03;;;;;;;21.41;nan;100726.06;4985290;28;20065;-76
2023/08/13 10:41:05;;;;;;;7.55;4.68;;;;;;;21.42;nan;100725.09;4983302;28;20494;-77
2023/08/13 10:43:30;;;;;;;10.73;4.15;;;;;;;21.41;nan;100728.72;4971861;28;20032;-78
2023/08/13 10:45:55;;;;;;;10.80;4.18;;;;;;;21.41;nan;100726.06;4978401;28;21583;-77
2023/08/13 10:48:27;;;;;;;9.60;4.10;;;;;;;21.41;nan;100726.06;4982610;28;20390;-77
2023/08/13 10:50:54;;;;;;;8.02;3.67;;;;;;;21.41;nan;100714.66;4984468;28;21281;-77
2023/08/13 10:53:22;;;;;;;10.63;4.03;;;;;;;21.41;nan;100715.50;4977654;28;20111;-76
2023/08/13 10:55:52;;;;;;;7.72;4.05;;;;;;;21.41;nan;100726.06;4984464;28;20549;-76
2023/08/13 10:58:41;;;;;;;10.65;3.80;;;;;;;21.41;nan;100722.59;4982513;28;20036;-77
2023/08/13 11:01:09;;;;;;;10.57;4.05;;;;;;;21.41;nan;100730.50;4984086;28;20034;-77
2023/08/13 11:03:43;;;;;;;8.23;3.90;;;;;;;21.41;nan;100728.72;4980638;28;20386;-77
2023/08/13 11:06:08;;;;;;;9.43;4.10;;;;;;;21.41;nan;100726.06;4982778;28;20041;-77
2023/08/13 11:08:37;;;;;;;12.68;4.15;;;;;;;21.41;nan;100728.72;4985111;28;20038;-76
2023/08/13 11:11:03;;;;;;;8.30;4.03;;;;;;;21.42;nan;100732.19;4981779;28;20617;-77
2023/08/13 11:13:29;;;;;;;9.38;3.83;;;;;;;21.42;nan;100733.03;4978000;28;20042;-77
2023/08/13 11:15:55;;;;;;;8.00;3.53;;;;;;;21.41;nan;100736.63;4979743;28;20659;-78
2023/08/13 11:18:26;;;;;;;6.45;3.60;;;;;;;21.41;nan;100731.34;4982090;28;20793;-77
2023/08/13 11:20:52;;;;;;;7.13;4.00;;;;;;;21.42;nan;100740.13;4982134;28;20036;-77
2023/08/13 11:23:18;;;;;;;9.98;3.80;;;;;;;21.41;nan;100735.78;4992807;28;20629;-77
2023/08/13 11:25:49;;;;;;;8.20;3.55;;;;;;;21.41;nan;100734.00;4991452;28;20037;-77
2023/08/13 11:28:25;;;;;;;10.65;3.58;;;;;;;21.41;nan;100726.06;4981771;28;20034;-77
2023/08/13 11:30:53;;;;;;;7.57;3.72;;;;;;;21.40;nan;100721.75;4982851;28;20044;-77
2023/08/13 11:33:19;;;;;;;11.65;3.70;;;;;;;21.42;nan;100721.63;4994333;28;20092;-78
2023/08/13 11:35:47;;;;;;;10.18;3.83;;;;;;;21.41;nan;100727.88;4993106;28;20030;-77
2023/08/13 11:38:13;;;;;;;6.38;3.67;;;;;;;21.40;nan;100719.09;4982621;28;20034;-77
2023/08/13 11:40:38;;;;;;;8.82;3.83;;;;;;;21.41;nan;100719.94;4982446;28;20050;-77